createdAt,value
2018-02-22T00:00:52.275Z,28.60
2018-02-22T00:03:18.675Z,29.37
2018-02-22T00:05:45.118Z,29.73
2018-02-22T00:08:11.403Z,24.27
2018-02-22T00:10:37.787Z,30.40
2018-02-22T00:13:04.926Z,29.60
2018-02-22T00:15:32.689Z,23.50
2018-02-22T00:17:59.082Z,20.77
2018-02-22T00:20:25.332Z,24.13
2018-02-22T00:22:51.564Z,21.70
2018-02-22T00:25:17.957Z,26.43
2018-02-22T00:27:44.326Z,22.80
2018-02-22T00:30:10.682Z,28.70
2018-02-22T00:32:37.814Z,21.90
2018-02-22T00:35:04.189Z,21.20
2018-02-22T00:37:30.625Z,25.83
2018-02-22T00:39:57.003Z,25.37
2018-02-22T00:42:23.393Z,26.17
2018-02-22T00:44:49.697Z,24.03
2018-02-22T00:47:16.766Z,25.63
2018-02-22T00:49:43.238Z,24.47
2018-02-22T00:52:09.452Z,24.20
2018-02-22T00:54:35.805Z,23.63
2018-02-22T00:57:02.073Z,19.97
2018-02-22T00:59:28.293Z,22.30
2018-02-22T01:01:54.614Z,29.23
2018-02-22T01:04:21.526Z,24.90
2018-02-22T01:06:48.619Z,28.90
2018-02-22T01:09:15.003Z,21.60
2018-02-22T01:11:41.238Z,23.50
2018-02-22T01:14:08.378Z,25.90
2018-02-22T01:16:34.662Z,25.80
2018-02-22T01:19:01.023Z,29.37
2018-02-22T01:21:27.321Z,21.80
2018-02-22T01:23:53.780Z,27.10
2018-02-22T01:26:20.062Z,23.87
2018-02-22T01:28:46.283Z,21.70
2018-02-22T01:31:12.636Z,25.00
2018-02-22T01:33:38.952Z,21.80
2018-02-22T01:36:05.309Z,25.37
2018-02-22T01:38:32.024Z,20.07
2018-02-22T01:40:58.464Z,19.33
2018-02-22T01:43:24.847Z,23.13
2018-02-22T01:45:51.260Z,28.67
2018-02-22T01:48:17.476Z,21.90
2018-02-22T01:50:45.613Z,22.17
2018-02-22T01:53:11.946Z,28.43
2018-02-22T01:55:38.274Z,31.43
2018-02-22T01:58:04.483Z,26.07
2018-02-22T02:00:30.861Z,23.60
2018-02-22T02:02:57.099Z,22.40
2018-02-22T02:05:23.390Z,20.33
2018-02-22T02:07:49.865Z,23.40
2018-02-22T02:10:16.310Z,23.37
2018-02-22T02:12:43.433Z,24.27
2018-02-22T02:15:09.762Z,21.03
2018-02-22T02:17:36.050Z,23.80
2018-02-22T02:20:02.241Z,26.50
2018-02-22T02:22:29.274Z,24.60
2018-02-22T02:24:56.239Z,21.73
2018-02-22T02:27:23.284Z,23.67
2018-02-22T02:29:50.303Z,24.73
2018-02-22T02:32:16.958Z,27.00
2018-02-22T02:34:44.027Z,26.87
2018-02-22T02:37:10.469Z,28.37
2018-02-22T02:39:36.880Z,22.30
2018-02-22T02:42:04.093Z,20.53
2018-02-22T02:44:30.374Z,21.23
2018-02-22T02:46:56.865Z,23.20
2018-02-22T02:49:23.124Z,27.97
2018-02-22T02:51:49.549Z,26.03
2018-02-22T02:54:16.015Z,23.00
2018-02-22T02:56:42.519Z,22.80
2018-02-22T02:59:09.114Z,22.60
2018-02-22T03:01:35.401Z,25.30
2018-02-22T03:04:01.879Z,24.30
2018-02-22T03:06:29.839Z,25.93
2018-02-22T03:08:57.100Z,36.57
2018-02-22T03:11:23.636Z,26.20
2018-02-22T03:13:51.075Z,24.90
2018-02-22T03:16:17.616Z,25.70
2018-02-22T03:18:44.076Z,26.00
2018-02-22T03:21:11.319Z,20.83
2018-02-22T03:23:38.336Z,20.80
2018-02-22T03:26:04.648Z,24.70
2018-02-22T03:28:31.064Z,22.03
2018-02-22T03:30:57.533Z,26.40
2018-02-22T03:33:24.073Z,28.90
2018-02-22T03:35:50.605Z,21.20
2018-02-22T03:38:16.994Z,27.97
2018-02-22T03:40:43.355Z,24.10
2018-02-22T03:43:09.829Z,26.50
2018-02-22T03:45:36.137Z,20.53
2018-02-22T03:48:03.235Z,22.40
2018-02-22T03:50:29.540Z,25.03
2018-02-22T03:52:55.921Z,29.30
2018-02-22T03:55:22.313Z,31.97
2018-02-22T03:57:48.650Z,28.87
2018-02-22T04:00:14.942Z,32.57
2018-02-22T04:02:41.928Z,24.47
2018-02-22T04:05:08.242Z,32.03
2018-02-22T04:07:34.709Z,24.30
2018-02-22T04:10:00.986Z,31.63
2018-02-22T04:12:27.384Z,24.97
2018-02-22T04:14:53.699Z,21.03
2018-02-22T04:17:19.972Z,26.03
2018-02-22T04:19:46.324Z,24.70
2018-02-22T04:22:12.663Z,22.80
2018-02-22T04:24:39.018Z,25.40
2018-02-22T04:27:06.838Z,22.97
2018-02-22T04:29:33.137Z,24.20
2018-02-22T04:32:00.128Z,28.07
2018-02-22T04:34:26.342Z,21.23
2018-02-22T04:36:52.558Z,24.60
2018-02-22T04:39:18.840Z,24.07
2018-02-22T04:41:45.323Z,28.70
2018-02-22T04:44:11.629Z,22.07
2018-02-22T04:46:38.664Z,26.63
2018-02-22T04:49:05.793Z,30.20
2018-02-22T04:51:46.997Z,33.17
2018-02-22T04:54:14.062Z,28.57
2018-02-22T04:56:40.359Z,28.00
2018-02-22T04:59:07.432Z,23.90
2018-02-22T05:01:33.822Z,26.00
2018-02-22T05:04:00.250Z,24.17
2018-02-22T05:06:26.606Z,21.53
2018-02-22T05:08:53.787Z,24.30
2018-02-22T05:11:20.129Z,27.20
2018-02-22T05:13:46.458Z,26.03
2018-02-22T05:16:12.695Z,39.87
2018-02-22T05:18:38.965Z,25.83
2018-02-22T05:21:05.915Z,27.50
2018-02-22T05:23:32.796Z,23.80
2018-02-22T05:25:59.001Z,23.97
2018-02-22T05:28:25.191Z,21.00
2018-02-22T05:30:52.143Z,23.23
2018-02-22T05:33:19.156Z,22.07
2018-02-22T05:35:45.767Z,30.80
2018-02-22T05:38:12.074Z,20.63
2018-02-22T05:40:38.429Z,23.60
2018-02-22T05:43:04.819Z,35.93
2018-02-22T05:45:32.030Z,27.13
2018-02-22T05:47:58.203Z,21.20
2018-02-22T05:50:24.550Z,32.87
2018-02-22T05:52:50.755Z,23.17
2018-02-22T05:55:17.837Z,31.20
2018-02-22T05:57:44.024Z,25.40
2018-02-22T06:00:10.530Z,22.93
2018-02-22T06:02:36.847Z,28.40
2018-02-22T06:05:03.128Z,31.47
2018-02-22T06:07:29.386Z,30.37
2018-02-22T06:09:55.608Z,34.60
2018-02-22T06:12:22.005Z,29.13
2018-02-22T06:14:48.596Z,27.70
2018-02-22T06:17:14.842Z,35.87
2018-02-22T06:19:41.892Z,33.70
2018-02-22T06:22:08.840Z,31.43
2018-02-22T06:24:35.758Z,39.93
2018-02-22T06:27:03.079Z,35.30
2018-02-22T06:29:29.261Z,34.33
2018-02-22T06:31:56.316Z,29.20
2018-02-22T06:34:23.433Z,30.97
2018-02-22T06:36:50.028Z,29.13
2018-02-22T06:39:16.319Z,37.53
2018-02-22T06:41:43.482Z,34.50
2018-02-22T06:44:09.741Z,35.87
2018-02-22T06:46:36.024Z,35.50
2018-02-22T06:49:03.368Z,41.53
2018-02-22T06:51:30.415Z,40.50
2018-02-22T06:53:57.609Z,35.40
2018-02-22T06:56:23.904Z,38.87
2018-02-22T06:58:50.861Z,36.60
2018-02-22T07:01:17.065Z,41.57
2018-02-22T07:03:44.028Z,41.00
2018-02-22T07:06:10.219Z,42.53
2018-02-22T07:08:52.503Z,41.77
2018-02-22T07:11:18.824Z,44.00
2018-02-22T07:13:45.107Z,44.63
2018-02-22T07:16:11.388Z,44.50
2018-02-22T07:18:37.811Z,48.80
2018-02-22T07:21:04.154Z,60.00
2018-02-22T07:23:30.535Z,55.10
2018-02-22T07:25:56.740Z,56.23
2018-02-22T07:28:23.035Z,61.00
2018-02-22T07:30:49.322Z,52.37
2018-02-22T07:33:15.802Z,50.27
2018-02-22T07:35:42.059Z,60.20
2018-02-22T07:38:08.339Z,53.40
2018-02-22T07:40:34.669Z,57.70
2018-02-22T07:43:00.893Z,58.27
2018-02-22T07:45:27.087Z,45.70
2018-02-22T07:47:53.425Z,50.37
2018-02-22T07:50:19.717Z,56.80
2018-02-22T07:52:46.738Z,47.43
2018-02-22T07:55:13.751Z,48.30
2018-02-22T07:57:39.980Z,49.23
2018-02-22T08:00:06.987Z,51.33
2018-02-22T08:02:33.134Z,38.60
2018-02-22T08:04:59.503Z,36.33
2018-02-22T08:07:25.842Z,33.83
2018-02-22T08:09:52.075Z,30.67
2018-02-22T08:12:18.965Z,30.40
2018-02-22T08:14:46.436Z,29.33
2018-02-22T08:17:12.649Z,27.33
2018-02-22T08:19:39.022Z,29.93
2018-02-22T08:22:06.860Z,27.50
2018-02-22T08:24:33.196Z,25.27
2018-02-22T08:26:59.380Z,27.23
2018-02-22T08:29:25.587Z,23.27
2018-02-22T08:31:52.538Z,21.33
2018-02-22T08:34:18.847Z,19.53
2018-02-22T08:36:45.838Z,26.20
2018-02-22T08:39:12.142Z,26.23
2018-02-22T08:41:39.076Z,27.87
2018-02-22T08:44:05.998Z,22.77
2018-02-22T08:46:32.192Z,32.03
2018-02-22T08:48:58.411Z,24.83
2018-02-22T08:51:24.694Z,23.27
2018-02-22T08:53:52.214Z,20.00
2018-02-22T08:56:18.541Z,15.83
2018-02-22T08:58:44.784Z,17.70
2018-02-22T09:01:11.756Z,16.20
2018-02-22T09:03:38.781Z,20.47
2018-02-22T09:06:05.774Z,16.83
2018-02-22T09:08:32.191Z,25.47
2018-02-22T09:10:58.398Z,27.67
2018-02-22T09:13:25.308Z,20.37
2018-02-22T09:15:51.687Z,20.53
2018-02-22T09:18:17.868Z,20.30
2018-02-22T09:20:44.911Z,17.50
2018-02-22T09:23:11.045Z,45.13
2018-02-22T09:25:38.697Z,95.97
2018-02-22T09:28:05.053Z,41.67
2018-02-22T09:30:32.088Z,128.07
2018-02-22T09:32:58.386Z,17.07
2018-02-22T09:35:24.819Z,18.00
2018-02-22T09:37:51.087Z,15.63
2018-02-22T09:40:18.123Z,17.00
2018-02-22T09:42:45.051Z,27.90
2018-02-22T09:45:12.724Z,9.17
2018-02-22T09:47:39.791Z,11.17
2018-02-22T09:50:06.118Z,17.60
2018-02-22T09:52:33.153Z,9.47
2018-02-22T09:55:00.194Z,12.70
2018-02-22T09:57:27.368Z,13.13
2018-02-22T09:59:53.844Z,11.00
2018-02-22T10:02:22.322Z,12.43
2018-02-22T10:04:48.671Z,11.73
2018-02-22T10:07:14.922Z,11.10
2018-02-22T10:09:41.284Z,17.70
2018-02-22T10:12:07.522Z,26.13
2018-02-22T10:14:33.727Z,33.40
2018-02-22T10:17:00.010Z,11.70
2018-02-22T10:19:26.910Z,17.03
2018-02-22T10:21:53.229Z,11.00
2018-02-22T10:24:19.421Z,7.67
2018-02-22T10:26:46.531Z,16.50
2018-02-22T10:29:12.717Z,18.20
2018-02-22T10:31:39.026Z,16.70
2018-02-22T10:34:06.017Z,14.80
2018-02-22T10:36:32.202Z,11.50
2018-02-22T10:38:59.135Z,13.13
2018-02-22T10:41:26.060Z,10.43
2018-02-22T10:43:52.723Z,16.90
2018-02-22T10:46:19.848Z,10.40
2018-02-22T10:48:46.969Z,10.80
2018-02-22T10:51:13.167Z,11.43
2018-02-22T10:53:39.487Z,22.63
2018-02-22T10:56:06.697Z,12.50
2018-02-22T10:58:33.553Z,16.73
2018-02-22T11:01:06.873Z,10.80
2018-02-22T11:03:33.669Z,13.20
2018-02-22T11:05:59.930Z,16.37
2018-02-22T11:08:26.215Z,11.67
2018-02-22T11:10:52.408Z,12.10
2018-02-22T11:13:18.710Z,65.90
2018-02-22T11:15:45.350Z,24.30
2018-02-22T11:18:11.639Z,33.07
2018-02-22T11:20:37.966Z,46.40
2018-02-22T11:23:11.183Z,48.83
2018-02-22T11:25:38.329Z,11.27
2018-02-22T11:28:05.493Z,10.67
2018-02-22T11:30:31.844Z,8.47
2018-02-22T11:32:58.310Z,10.53
2018-02-22T11:35:24.630Z,5.63
2018-02-22T11:37:51.127Z,10.43
2018-02-22T11:40:17.392Z,9.80
2018-02-22T11:42:45.132Z,6.57
2018-02-22T11:45:11.506Z,10.83
2018-02-22T11:47:37.816Z,6.57
2018-02-22T11:50:05.581Z,5.20
2018-02-22T11:52:33.436Z,11.93
2018-02-22T11:54:59.679Z,10.90
2018-02-22T11:57:26.004Z,7.27
2018-02-22T11:59:52.345Z,12.43
2018-02-22T12:02:18.606Z,10.30
2018-02-22T12:04:44.990Z,15.70
2018-02-22T12:07:11.285Z,11.20
2018-02-22T12:09:37.592Z,12.07
2018-02-22T12:12:03.861Z,9.93
2018-02-22T12:14:30.106Z,13.77
2018-02-22T12:16:56.321Z,17.30
2018-02-22T12:19:22.596Z,12.40
2018-02-22T12:21:48.843Z,13.73
2018-02-22T12:24:15.079Z,15.90
2018-02-22T12:26:41.450Z,12.53
2018-02-22T12:29:07.743Z,8.80
2018-02-22T12:31:34.105Z,9.60
2018-02-22T12:34:01.245Z,11.40
2018-02-22T12:36:29.206Z,16.43
2018-02-22T12:38:55.572Z,10.53
2018-02-22T12:41:22.681Z,9.53
2018-02-22T12:43:48.965Z,7.30
2018-02-22T12:46:15.299Z,10.70
2018-02-22T12:48:41.904Z,10.87
2018-02-22T12:51:08.156Z,10.50
2018-02-22T12:53:34.348Z,13.97
2018-02-22T12:56:01.410Z,18.33
2018-02-22T12:58:28.533Z,70.53
2018-02-22T13:00:54.880Z,13.87
2018-02-22T13:03:21.953Z,12.63
2018-02-22T13:05:48.291Z,9.53
2018-02-22T13:08:14.605Z,9.50
2018-02-22T13:10:40.921Z,8.67
2018-02-22T13:13:08.045Z,10.93
2018-02-22T13:15:35.121Z,11.00
2018-02-22T13:18:02.072Z,12.20
2018-02-22T13:20:28.391Z,11.17
2018-02-22T13:22:55.587Z,8.53
2018-02-22T13:25:22.144Z,11.43
2018-02-22T13:27:48.587Z,10.43
2018-02-22T13:30:15.659Z,11.17
2018-02-22T13:32:55.074Z,11.53
2018-02-22T13:35:21.580Z,11.17
2018-02-22T13:40:48.136Z,7.40
2018-02-22T13:43:14.373Z,7.43
2018-02-22T13:45:40.643Z,9.37
2018-02-22T13:48:07.049Z,6.30
2018-02-22T13:50:46.368Z,9.07
2018-02-22T13:53:12.524Z,7.13
2018-02-22T13:55:38.709Z,6.53
2018-02-22T13:58:04.970Z,9.63
2018-02-22T14:00:44.388Z,9.10
2018-02-22T14:03:10.710Z,8.13
2018-02-22T14:05:37.020Z,8.07
2018-02-22T14:08:03.347Z,12.03
2018-02-22T14:10:29.582Z,7.50
2018-02-22T14:12:55.915Z,12.00
2018-02-22T14:15:22.091Z,10.10
2018-02-22T14:17:48.342Z,14.13
2018-02-22T14:20:14.705Z,13.00
2018-02-22T14:22:40.972Z,16.10
2018-02-22T14:25:07.247Z,12.00
2018-02-22T14:27:34.239Z,11.43
2018-02-22T14:30:01.246Z,9.43
2018-02-22T14:32:27.610Z,11.67
2018-02-22T14:34:53.946Z,11.90
2018-02-22T14:37:20.201Z,27.60
2018-02-22T14:39:46.559Z,24.03
2018-02-22T14:42:12.815Z,17.00
2018-02-22T14:44:40.875Z,8.80
2018-02-22T14:47:07.956Z,14.10
2018-02-22T14:49:34.195Z,7.23
2018-02-22T14:52:00.549Z,11.10
2018-02-22T14:54:26.785Z,12.43
2018-02-22T14:56:53.007Z,9.33
2018-02-22T14:59:19.226Z,7.10
2018-02-22T15:01:45.518Z,7.23
2018-02-22T15:04:11.965Z,9.00
2018-02-22T15:06:38.282Z,7.87
2018-02-22T15:09:04.639Z,10.50
2018-02-22T15:11:31.749Z,9.77
2018-02-22T15:13:58.062Z,13.47
2018-02-22T15:16:25.113Z,11.00
2018-02-22T15:18:51.501Z,11.17
2018-02-22T15:21:17.733Z,10.90
2018-02-22T15:23:44.096Z,10.67
2018-02-22T15:26:10.994Z,11.23
2018-02-22T15:28:37.237Z,8.17
2018-02-22T15:31:03.611Z,9.10
2018-02-22T15:33:29.959Z,9.50
2018-02-22T15:35:57.324Z,14.03
2018-02-22T15:38:23.678Z,10.97
2018-02-22T15:40:50.029Z,10.30
2018-02-22T15:43:17.084Z,12.60
2018-02-22T15:45:44.191Z,12.20
2018-02-22T15:48:10.464Z,11.47
2018-02-22T15:50:37.692Z,14.53
2018-02-22T15:53:04.654Z,11.17
2018-02-22T15:55:31.593Z,8.30
2018-02-22T15:57:58.580Z,18.07
2018-02-22T16:00:24.881Z,14.50
2018-02-22T16:02:51.102Z,13.20
2018-02-22T16:05:18.119Z,13.27
2018-02-22T16:07:45.202Z,14.87
2018-02-22T16:10:11.550Z,9.10
2018-02-22T16:12:37.753Z,13.23
2018-02-22T16:15:04.346Z,12.30
2018-02-22T16:17:30.541Z,10.17
2018-02-22T16:19:57.243Z,13.50
2018-02-22T16:22:23.680Z,10.37
2018-02-22T16:24:50.075Z,9.90
2018-02-22T16:27:16.618Z,10.33
2018-02-22T16:29:43.010Z,11.50
2018-02-22T16:32:09.210Z,8.97
2018-02-22T16:34:35.491Z,5.47
2018-02-22T16:37:03.299Z,10.03
2018-02-22T16:39:29.519Z,10.10
2018-02-22T16:41:55.875Z,11.83
2018-02-22T16:44:22.212Z,17.90
2018-02-22T16:46:48.631Z,10.47
2018-02-22T16:49:15.324Z,7.80
2018-02-22T16:51:43.074Z,13.23
2018-02-22T16:54:09.633Z,8.63
2018-02-22T16:56:37.727Z,9.57
2018-02-22T16:59:04.198Z,8.10
2018-02-22T17:01:30.570Z,10.63
2018-02-22T17:03:58.805Z,8.07
2018-02-22T17:06:25.867Z,9.00
2018-02-22T17:08:53.004Z,6.67
2018-02-22T17:11:20.421Z,6.83
2018-02-22T17:13:48.077Z,9.93
2018-02-22T17:16:14.367Z,8.27
2018-02-22T17:18:41.488Z,9.87
2018-02-22T17:21:07.863Z,7.57
2018-02-22T17:23:35.852Z,9.07
2018-02-22T17:26:08.486Z,10.70
2018-02-22T17:28:41.805Z,9.23
2018-02-22T17:31:14.137Z,7.70
2018-02-22T17:33:42.168Z,6.17
2018-02-22T17:39:16.176Z,8.90
2018-02-22T17:41:43.586Z,9.27
2018-02-22T17:44:09.880Z,11.43
2018-02-22T17:46:36.213Z,11.00
2018-02-22T17:49:03.571Z,9.77
2018-02-22T17:51:29.959Z,8.00
2018-02-22T17:53:57.035Z,11.37
2018-02-22T17:56:24.551Z,13.90
2018-02-22T17:58:52.865Z,22.93
2018-02-22T18:01:19.345Z,15.40
2018-02-22T18:03:45.973Z,22.70
2018-02-22T18:06:13.802Z,12.03
2018-02-22T18:08:40.897Z,17.87
2018-02-22T18:11:09.209Z,15.97
2018-02-22T18:13:40.101Z,18.93
2018-02-22T18:16:06.357Z,20.27
2018-02-22T18:18:33.606Z,12.13
2018-02-22T18:21:00.117Z,18.47
2018-02-22T18:23:26.906Z,16.07
2018-02-22T18:25:54.122Z,15.07
2018-02-22T18:28:21.251Z,14.00
2018-02-22T18:30:47.731Z,14.80
2018-02-22T18:33:14.065Z,13.97
2018-02-22T18:35:40.638Z,10.73
2018-02-22T18:38:06.862Z,9.67
2018-02-22T18:40:39.239Z,11.10
2018-02-22T18:43:11.852Z,11.47
2018-02-22T18:45:38.270Z,12.33
2018-02-22T18:48:05.944Z,10.07
2018-02-22T18:50:32.904Z,6.07
2018-02-22T18:52:59.274Z,9.97
2018-02-22T18:55:26.631Z,9.27
2018-02-22T18:57:54.192Z,15.27
2018-02-22T19:00:20.829Z,8.83
2018-02-22T19:02:47.715Z,14.57
2018-02-22T19:05:20.347Z,13.23
2018-02-22T19:07:47.076Z,11.20
2018-02-22T19:10:13.937Z,11.57
2018-02-22T19:12:40.362Z,10.77
2018-02-22T19:15:07.865Z,11.63
2018-02-22T19:17:34.235Z,9.10
2018-02-22T19:20:00.565Z,10.30
2018-02-22T19:22:27.008Z,10.10
2018-02-22T19:24:53.315Z,12.10
2018-02-22T19:27:19.612Z,9.43
2018-02-22T19:29:46.032Z,9.13
2018-02-22T19:32:12.748Z,12.40
2018-02-22T19:34:39.999Z,12.43
2018-02-22T19:37:07.055Z,16.00
2018-02-22T19:39:34.250Z,12.17
2018-02-22T19:42:00.544Z,21.23
2018-02-22T19:44:26.977Z,13.97
2018-02-22T19:46:53.366Z,12.87
2018-02-22T19:49:20.455Z,13.60
2018-02-22T19:51:47.024Z,13.60
2018-02-22T19:54:13.330Z,12.07
2018-02-22T19:56:39.838Z,14.10
2018-02-22T19:59:06.851Z,15.00
2018-02-22T20:01:33.173Z,10.50
2018-02-22T20:04:00.203Z,11.67
2018-02-22T20:06:26.527Z,16.73
2018-02-22T20:08:53.236Z,11.10
2018-02-22T20:11:20.268Z,12.30
2018-02-22T20:13:46.989Z,12.03
2018-02-22T20:16:14.162Z,13.40
2018-02-22T20:18:41.132Z,14.47
2018-02-22T20:21:08.690Z,12.07
2018-02-22T20:23:34.984Z,15.03
2018-02-22T20:26:02.209Z,13.87
2018-02-22T20:28:28.561Z,11.00
2018-02-22T20:30:55.621Z,13.10
2018-02-22T20:33:22.061Z,16.33
2018-02-22T20:35:48.326Z,10.50
2018-02-22T20:38:14.660Z,10.20
2018-02-22T20:40:41.148Z,11.80
2018-02-22T20:43:07.445Z,9.83
2018-02-22T20:45:33.754Z,11.37
2018-02-22T20:48:00.141Z,11.20
2018-02-22T20:50:26.478Z,13.87
2018-02-22T20:52:52.779Z,8.53
2018-02-22T20:55:20.868Z,15.43
2018-02-22T20:57:47.171Z,9.73
2018-02-22T21:00:15.307Z,8.60
2018-02-22T21:02:41.719Z,13.80
2018-02-22T21:05:08.248Z,11.23
2018-02-22T21:07:34.834Z,11.73
2018-02-22T21:10:01.880Z,12.53
2018-02-22T21:12:28.240Z,12.50
2018-02-22T21:14:54.500Z,14.13
2018-02-22T21:17:20.962Z,9.93
2018-02-22T21:19:48.791Z,11.27
2018-02-22T21:22:15.081Z,12.50
2018-02-22T21:24:41.519Z,12.43
2018-02-22T21:27:07.892Z,8.10
2018-02-22T21:29:34.193Z,12.40
2018-02-22T21:32:08.535Z,15.10
2018-02-22T21:34:35.072Z,15.83
2018-02-22T21:37:01.313Z,11.97
2018-02-22T21:39:28.237Z,9.70
2018-02-22T21:41:54.700Z,11.37
2018-02-22T21:44:20.910Z,8.43
2018-02-22T21:46:47.537Z,10.17
2018-02-22T21:49:14.050Z,16.87
2018-02-22T21:51:40.504Z,9.43
2018-02-22T21:54:07.614Z,10.20
2018-02-22T21:56:34.892Z,10.17
2018-02-22T21:59:01.133Z,10.87
2018-02-22T22:01:27.815Z,10.30
2018-02-22T22:03:55.383Z,12.47
2018-02-22T22:06:21.762Z,13.00
2018-02-22T22:08:49.514Z,10.07
2018-02-22T22:11:16.464Z,12.13
2018-02-22T22:13:42.779Z,15.90
2018-02-22T22:16:09.934Z,11.23
2018-02-22T22:18:36.376Z,11.20
2018-02-22T22:21:03.417Z,9.50
2018-02-22T22:23:29.945Z,13.23
2018-02-22T22:25:56.179Z,13.10
2018-02-22T22:28:22.575Z,12.30
2018-02-22T22:30:48.929Z,13.37
2018-02-22T22:33:15.260Z,9.43
2018-02-22T22:35:41.628Z,8.70
2018-02-22T22:38:08.556Z,14.50
2018-02-22T22:40:35.526Z,11.57
2018-02-22T22:43:01.848Z,13.77
2018-02-22T22:45:28.100Z,13.40
2018-02-22T22:47:54.279Z,9.17
2018-02-22T22:50:20.522Z,13.40
2018-02-22T22:52:47.540Z,9.97
2018-02-22T22:55:13.800Z,9.60
2018-02-22T22:57:40.766Z,14.63
2018-02-22T23:00:07.072Z,12.00
2018-02-22T23:02:34.149Z,14.10
2018-02-22T23:05:00.365Z,24.50
2018-02-22T23:07:26.667Z,19.47
2018-02-22T23:09:53.926Z,16.57
2018-02-22T23:12:20.121Z,23.87
2018-02-22T23:14:47.884Z,15.93
2018-02-22T23:17:14.397Z,15.80
2018-02-22T23:19:40.679Z,12.53
2018-02-22T23:22:06.967Z,16.57
2018-02-22T23:24:33.285Z,20.23
2018-02-22T23:26:59.556Z,17.50
2018-02-22T23:29:26.587Z,20.97
2018-02-22T23:31:53.550Z,20.47
2018-02-22T23:34:19.847Z,21.80
2018-02-22T23:36:47.326Z,18.70
2018-02-22T23:39:14.498Z,13.10
2018-02-22T23:41:42.675Z,15.23
2018-02-22T23:44:08.932Z,21.20
2018-02-22T23:46:35.227Z,21.70
2018-02-22T23:49:01.698Z,14.63
2018-02-22T23:51:28.126Z,15.27
2018-02-22T23:53:55.147Z,13.23
2018-02-22T23:56:21.446Z,13.70
2018-02-22T23:58:47.712Z,14.70
